Cottonwood, AZ (86326)

7:11 AM MST on August 28, 2015 (GMT -0700)
Verde Village Unit # 6 | | Change Station
CLOSE
Current Station
Personal Weather Station
Location: Cottonwood, AZ
Elevation: 3485 ft
Nearby Weather Stations

Elev 3485 ft 34.70 °N, 112.01 °W | Updated 8 seconds ago

Clear
Clear
69.6 °F
Feels Like 69.6 °F
N
0.0
Wind Variable Wind from SW
Gusts 0.0 mph

Today
High -- | Low -- °F
--% Chance of Precip.
Yesterday
High -- | Low -- °F
Precip. -- in
5:57 AM 6:59 PM
Waxing Gibbous, 98% visible
Pressure 30.01 in
Visibility 10.0 miles
Clouds Clear
Dew Point 65 °F
Humidity 86%
Rainfall 0.00 in
Snow Depth Not available.
UV 0 out of 12
Pollen 5.90 out of 12
Air Quality Not available.
Flu Activity Not available.
METAR KPRC 281353Z 19003KT 10SM CLR 17/13 A3023 RMK AO2 SLP161 T01670133
Pressure 30.01 in
Visibility 10.0 miles
Clouds Clear
Dew Point 65 °F
Humidity 86%
Rainfall 0.00 in
Snow Depth Not available.
UV 0 out of 12
Pollen 5.90 out of 12
Air Quality Not available.
Flu Activity Not available.
METAR KPRC 281353Z 19003KT 10SM CLR 17/13 A3023 RMK AO2 SLP161 T01670133

10-Day Weather Forecast

×

Almanac

Astronomy

Aug. 28, 2015 Rise Set
Actual Time
Civil Twilight
Nautical Twilight
Astronomical Twilight
Moon
Length of Visible Light
Length of Day
Tomorrow will be .
, % of the Moon is Illuminated

Today's Extremes

State Highs State Lows

Community

WunderPhotos

Upload Photos

1,850,379 photos uploaded!

WunderBlogs® & News

Nearby

Air Quality

  Air Quality AQ Index Pollutant
Not available.

Snow Depth

Station Depth Elevation

Earthquake Activity

City Distance Mag. Time & Date
Minimum magnitude displayed is 2.5.

Coastal Water Temperatures

Place Temperature

Stations

Nearby Weather Stations

Station Location Temp. Windchill Dew Point Humidity Wind Precip. Elev Updated Type